WAT62 KBFI-CYYC
Flight info
| Callsign | WAT62 |
|---|---|
| Flight time | 1h 5m |
| Altitude | 35000 |
| Route | ALPSE DCT YDC DCT MENBO Q983 NORET IGVEP7 |
| Aircraft | B77L/H-SDE1E2E3FGHIJ2J3J4J5M1RWXY/LB1D1 |
Departure
| Time | 2026-04-24 03:18 |
|---|---|
| Airport | King County International Airport - Boeing Field (KBFI) |
Arrival
| Time | 2026-04-24 04:24 |
|---|---|
| Airport | Calgary International Airport (CYYC) |
| Time | Latitude | Longitude | Altitude | Speed | Heading |
|---|---|---|---|---|---|
| 2026-04-24 03:04 | 47.53510 | -122.30274 | 32 ft | 0 kts | 59° |
| 2026-04-24 03:10 | 47.53509 | -122.30275 | 32 ft | 0 kts | 59° |
| 2026-04-24 03:10 | 47.53502 | -122.30293 | 31 ft | 2 kts | 44° |
| 2026-04-24 03:10 | 47.53490 | -122.30306 | 31 ft | 2 kts | 30° |
| 2026-04-24 03:11 | 47.53476 | -122.30315 | 30 ft | 2 kts | 16° |
| 2026-04-24 03:11 | 47.53466 | -122.30318 | 30 ft | 2 kts | 7° |
| 2026-04-24 03:11 | 47.53458 | -122.30319 | 30 ft | 2 kts | 359° |
| 2026-04-24 03:11 | 47.53443 | -122.30317 | 30 ft | 2 kts | 345° |
| 2026-04-24 03:12 | 47.53429 | -122.30309 | 30 ft | 2 kts | 331° |
| 2026-04-24 03:12 | 47.53416 | -122.30298 | 30 ft | 2 kts | 329° |
| 2026-04-24 03:12 | 47.53411 | -122.30293 | 30 ft | 0 kts | 330° |
| 2026-04-24 03:15 | 47.53411 | -122.30294 | 30 ft | 0 kts | 330° |
| 2026-04-24 03:15 | 47.53419 | -122.30300 | 30 ft | 2 kts | 330° |
| 2026-04-24 03:15 | 47.53447 | -122.30325 | 30 ft | 7 kts | 330° |
| 2026-04-24 03:15 | 47.53509 | -122.30377 | 30 ft | 12 kts | 330° |
| 2026-04-24 03:16 | 47.53587 | -122.30451 | 30 ft | 14 kts | 323° |
| 2026-04-24 03:16 | 47.53676 | -122.30547 | 30 ft | 16 kts | 329° |
| 2026-04-24 03:16 | 47.53783 | -122.30638 | 30 ft | 18 kts | 330° |
| 2026-04-24 03:16 | 47.53901 | -122.30738 | 30 ft | 20 kts | 330° |
| 2026-04-24 03:17 | 47.54018 | -122.30842 | 31 ft | 16 kts | 326° |
| 2026-04-24 03:17 | 47.54087 | -122.30925 | 30 ft | 12 kts | 299° |
| 2026-04-24 03:17 | 47.54071 | -122.31050 | 29 ft | 13 kts | 239° |
| 2026-04-24 03:17 | 47.54016 | -122.31100 | 28 ft | 10 kts | 161° |
| 2026-04-24 03:18 | 47.53883 | -122.30991 | 27 ft | 48 kts | 150° |
| 2026-04-24 03:18 | 47.53372 | -122.30558 | 27 ft | 120 kts | 150° |
| 2026-04-24 03:18 | 47.52438 | -122.29779 | 44 ft | 180 kts | 150° |
| 2026-04-24 03:18 | 47.51333 | -122.28829 | 703 ft | 186 kts | 148° |
| 2026-04-24 03:19 | 47.50234 | -122.27853 | 1525 ft | 189 kts | 148° |
| 2026-04-24 03:19 | 47.49046 | -122.26857 | 1960 ft | 204 kts | 149° |
| 2026-04-24 03:19 | 47.47708 | -122.25744 | 2009 ft | 236 kts | 149° |
| 2026-04-24 03:19 | 47.46228 | -122.24485 | 2003 ft | 251 kts | 149° |
| 2026-04-24 03:20 | 47.44686 | -122.23199 | 2001 ft | 254 kts | 150° |
| 2026-04-24 03:20 | 47.43218 | -122.21732 | 1974 ft | 255 kts | 131° |
| 2026-04-24 03:20 | 47.42381 | -122.19492 | 1977 ft | 255 kts | 102° |
| 2026-04-24 03:20 | 47.42378 | -122.16881 | 2034 ft | 268 kts | 73° |
| 2026-04-24 03:21 | 47.43370 | -122.14600 | 3054 ft | 268 kts | 39° |
| 2026-04-24 03:21 | 47.44981 | -122.13414 | 4278 ft | 262 kts | 12° |
| 2026-04-24 03:21 | 47.46774 | -122.13127 | 5198 ft | 267 kts | 3° |
| 2026-04-24 03:21 | 47.48651 | -122.13003 | 6120 ft | 272 kts | 2° |
| 2026-04-24 03:22 | 47.50535 | -122.12875 | 7037 ft | 276 kts | 2° |
| 2026-04-24 03:22 | 47.52445 | -122.12746 | 7944 ft | 279 kts | 2° |
| 2026-04-24 03:22 | 47.54374 | -122.12616 | 8815 ft | 282 kts | 2° |
| 2026-04-24 03:22 | 47.56332 | -122.12483 | 9660 ft | 285 kts | 2° |
| 2026-04-24 03:23 | 47.58322 | -122.12349 | 10438 ft | 291 kts | 2° |
| 2026-04-24 03:23 | 47.60395 | -122.12209 | 10985 ft | 306 kts | 2° |
| 2026-04-24 03:23 | 47.62549 | -122.12064 | 11542 ft | 320 kts | 2° |
| 2026-04-24 03:23 | 47.64819 | -122.11910 | 12124 ft | 334 kts | 2° |
| 2026-04-24 03:24 | 47.67182 | -122.11749 | 12724 ft | 347 kts | 2° |
| 2026-04-24 03:24 | 47.69626 | -122.11583 | 13358 ft | 359 kts | 2° |
| 2026-04-24 03:24 | 47.72161 | -122.11410 | 14007 ft | 371 kts | 2° |
| 2026-04-24 03:24 | 47.74751 | -122.11231 | 14805 ft | 377 kts | 2° |
| 2026-04-24 03:25 | 47.77374 | -122.11047 | 15693 ft | 380 kts | 2° |
| 2026-04-24 03:25 | 47.79987 | -122.10860 | 16626 ft | 380 kts | 1° |
| 2026-04-24 03:25 | 47.82606 | -122.10679 | 17530 ft | 380 kts | 1° |
| 2026-04-24 03:25 | 47.85231 | -122.10492 | 18392 ft | 380 kts | 1° |
| 2026-04-24 03:26 | 47.87843 | -122.10311 | 19234 ft | 380 kts | 0° |
| 2026-04-24 03:26 | 47.90480 | -122.10137 | 20087 ft | 380 kts | 0° |
| 2026-04-24 03:26 | 47.93102 | -122.09965 | 20923 ft | 379 kts | 0° |
| 2026-04-24 03:26 | 47.95733 | -122.09784 | 21726 ft | 379 kts | 360° |
| 2026-04-24 03:27 | 47.98347 | -122.09604 | 22512 ft | 379 kts | 359° |
| 2026-04-24 03:27 | 48.00944 | -122.09425 | 23162 ft | 382 kts | 359° |
| 2026-04-24 03:27 | 48.03618 | -122.09242 | 23741 ft | 388 kts | 359° |
| 2026-04-24 03:27 | 48.06347 | -122.09054 | 24364 ft | 392 kts | 359° |
| 2026-04-24 03:28 | 48.09053 | -122.08867 | 24993 ft | 396 kts | 359° |
| 2026-04-24 03:28 | 48.11815 | -122.08530 | 25610 ft | 402 kts | 4° |
| 2026-04-24 03:28 | 48.14552 | -122.07613 | 26246 ft | 410 kts | 12° |
| 2026-04-24 03:28 | 48.17242 | -122.06066 | 26857 ft | 421 kts | 19° |
| 2026-04-24 03:29 | 48.19807 | -122.03878 | 27458 ft | 433 kts | 27° |
| 2026-04-24 03:29 | 48.22198 | -122.01041 | 28062 ft | 445 kts | 34° |
| 2026-04-24 03:29 | 48.24476 | -121.97902 | 28673 ft | 450 kts | 35° |
| 2026-04-24 03:29 | 48.26761 | -121.94727 | 29278 ft | 454 kts | 35° |
| 2026-04-24 03:30 | 48.29079 | -121.91514 | 29968 ft | 456 kts | 35° |
| 2026-04-24 03:30 | 48.31380 | -121.88328 | 30833 ft | 453 kts | 35° |
| 2026-04-24 03:30 | 48.33679 | -121.85149 | 31721 ft | 449 kts | 35° |
| 2026-04-24 03:30 | 48.35964 | -121.81993 | 32524 ft | 447 kts | 34° |
| 2026-04-24 03:31 | 48.38264 | -121.78819 | 33218 ft | 446 kts | 34° |
| 2026-04-24 03:31 | 48.40531 | -121.75689 | 33861 ft | 444 kts | 34° |
| 2026-04-24 03:31 | 48.42827 | -121.72517 | 34519 ft | 442 kts | 34° |
| 2026-04-24 03:31 | 48.45090 | -121.69389 | 35121 ft | 442 kts | 33° |
| 2026-04-24 03:32 | 48.47370 | -121.66240 | 35244 ft | 445 kts | 33° |
| 2026-04-24 03:32 | 48.51867 | -121.60004 | 35242 ft | 437 kts | 33° |
| 2026-04-24 03:33 | 48.56319 | -121.53825 | 35190 ft | 437 kts | 33° |
| 2026-04-24 03:33 | 48.60780 | -121.47617 | 35074 ft | 440 kts | 33° |
| 2026-04-24 03:33 | 48.63019 | -121.44498 | 34860 ft | 441 kts | 33° |
| 2026-04-24 03:34 | 48.65275 | -121.41346 | 34627 ft | 439 kts | 33° |
| 2026-04-24 03:34 | 48.67494 | -121.38242 | 34452 ft | 435 kts | 33° |
| 2026-04-24 03:34 | 48.69691 | -121.35165 | 34504 ft | 435 kts | 33° |
| 2026-04-24 03:35 | 48.74162 | -121.28905 | 34432 ft | 444 kts | 34° |
| 2026-04-24 03:35 | 48.76458 | -121.25682 | 34185 ft | 448 kts | 34° |
| 2026-04-24 03:35 | 48.78730 | -121.22482 | 34002 ft | 444 kts | 34° |
| 2026-04-24 03:36 | 48.83214 | -121.16160 | 34181 ft | 446 kts | 34° |
| 2026-04-24 03:36 | 48.87711 | -121.09803 | 34343 ft | 444 kts | 34° |
| 2026-04-24 03:37 | 48.92232 | -121.03397 | 34462 ft | 444 kts | 34° |
| 2026-04-24 03:37 | 48.96725 | -120.97015 | 34479 ft | 444 kts | 34° |
| 2026-04-24 03:38 | 49.01235 | -120.90592 | 34329 ft | 443 kts | 34° |
| 2026-04-24 03:38 | 49.05710 | -120.84204 | 34377 ft | 444 kts | 34° |
| 2026-04-24 03:39 | 49.10196 | -120.77781 | 34466 ft | 444 kts | 34° |
| 2026-04-24 03:39 | 49.14708 | -120.71305 | 34562 ft | 444 kts | 34° |
| 2026-04-24 03:40 | 49.19167 | -120.64888 | 34614 ft | 444 kts | 34° |
| 2026-04-24 03:40 | 49.23657 | -120.58411 | 34694 ft | 444 kts | 34° |
| 2026-04-24 03:41 | 49.28135 | -120.51934 | 34820 ft | 444 kts | 35° |
| 2026-04-24 03:41 | 49.32581 | -120.45487 | 34938 ft | 446 kts | 35° |
| 2026-04-24 03:42 | 49.36881 | -120.38603 | 34884 ft | 456 kts | 44° |
| 2026-04-24 03:42 | 49.40030 | -120.29938 | 34683 ft | 476 kts | 59° |
| 2026-04-24 03:42 | 49.41302 | -120.25258 | 34510 ft | 477 kts | 59° |
| 2026-04-24 03:43 | 49.42532 | -120.20546 | 34392 ft | 474 kts | 60° |
| 2026-04-24 03:43 | 49.44955 | -120.11219 | 34535 ft | 477 kts | 59° |
| 2026-04-24 03:44 | 49.47405 | -120.01798 | 34572 ft | 475 kts | 60° |
| 2026-04-24 03:44 | 49.49819 | -119.92406 | 34698 ft | 473 kts | 60° |
| 2026-04-24 03:44 | 49.51016 | -119.87721 | 34877 ft | 475 kts | 60° |
| 2026-04-24 03:45 | 49.52214 | -119.83025 | 35041 ft | 474 kts | 60° |
| 2026-04-24 03:45 | 49.54629 | -119.73542 | 35115 ft | 477 kts | 60° |
| 2026-04-24 03:46 | 49.57028 | -119.64080 | 35111 ft | 476 kts | 61° |
| 2026-04-24 03:46 | 49.59408 | -119.54656 | 35127 ft | 476 kts | 61° |
| 2026-04-24 03:47 | 49.61793 | -119.45177 | 35041 ft | 477 kts | 61° |
| 2026-04-24 03:47 | 49.64179 | -119.35654 | 34934 ft | 477 kts | 61° |
| 2026-04-24 03:48 | 49.66562 | -119.26106 | 34808 ft | 479 kts | 62° |
| 2026-04-24 03:48 | 49.68952 | -119.16483 | 34732 ft | 480 kts | 62° |
| 2026-04-24 03:49 | 49.71323 | -119.06893 | 34644 ft | 479 kts | 62° |
| 2026-04-24 03:49 | 49.73686 | -118.97298 | 34508 ft | 480 kts | 62° |
| 2026-04-24 03:49 | 49.74855 | -118.92533 | 34612 ft | 478 kts | 62° |
| 2026-04-24 03:50 | 49.76029 | -118.87744 | 34762 ft | 481 kts | 62° |
| 2026-04-24 03:50 | 49.77211 | -118.82914 | 34893 ft | 481 kts | 63° |
| 2026-04-24 03:50 | 49.78392 | -118.78072 | 34993 ft | 481 kts | 63° |
| 2026-04-24 03:51 | 49.80740 | -118.68417 | 35007 ft | 484 kts | 63° |
| 2026-04-24 03:51 | 49.81907 | -118.63602 | 34868 ft | 483 kts | 63° |
| 2026-04-24 03:51 | 49.83076 | -118.58764 | 34698 ft | 482 kts | 63° |
| 2026-04-24 03:51 | 49.84249 | -118.53900 | 34515 ft | 482 kts | 63° |
| 2026-04-24 03:52 | 49.85416 | -118.49055 | 34324 ft | 482 kts | 64° |
| 2026-04-24 03:52 | 49.87730 | -118.39406 | 34452 ft | 481 kts | 64° |
| 2026-04-24 03:52 | 49.88908 | -118.34485 | 34589 ft | 482 kts | 64° |
| 2026-04-24 03:53 | 49.90065 | -118.29635 | 34714 ft | 482 kts | 64° |
| 2026-04-24 03:53 | 49.91219 | -118.24789 | 34815 ft | 482 kts | 65° |
| 2026-04-24 03:53 | 49.92374 | -118.19927 | 34832 ft | 483 kts | 65° |
| 2026-04-24 03:53 | 49.93531 | -118.15047 | 34725 ft | 484 kts | 65° |
| 2026-04-24 03:54 | 49.94688 | -118.10152 | 34591 ft | 483 kts | 65° |
| 2026-04-24 03:54 | 49.95834 | -118.05293 | 34439 ft | 482 kts | 65° |
| 2026-04-24 03:54 | 49.96980 | -118.00423 | 34273 ft | 482 kts | 65° |
| 2026-04-24 03:54 | 49.98133 | -117.95510 | 34153 ft | 480 kts | 65° |
| 2026-04-24 03:55 | 49.99265 | -117.90677 | 34188 ft | 480 kts | 65° |
| 2026-04-24 03:55 | 50.01536 | -117.80955 | 34381 ft | 481 kts | 65° |
| 2026-04-24 03:55 | 50.02673 | -117.76068 | 34503 ft | 481 kts | 65° |
| 2026-04-24 03:56 | 50.03803 | -117.71204 | 34614 ft | 481 kts | 65° |
| 2026-04-24 03:56 | 50.06067 | -117.61423 | 34695 ft | 482 kts | 65° |
| 2026-04-24 03:57 | 50.08317 | -117.51657 | 34678 ft | 482 kts | 65° |
| 2026-04-24 03:57 | 50.10566 | -117.41849 | 34654 ft | 481 kts | 65° |
| 2026-04-24 03:58 | 50.12792 | -117.32098 | 34613 ft | 483 kts | 66° |
| 2026-04-24 03:58 | 50.15049 | -117.22166 | 34488 ft | 482 kts | 66° |
| 2026-04-24 03:59 | 50.17260 | -117.12386 | 34742 ft | 482 kts | 66° |
| 2026-04-24 03:59 | 50.18359 | -117.07511 | 34910 ft | 483 kts | 67° |
| 2026-04-24 03:59 | 50.19474 | -117.02556 | 35066 ft | 483 kts | 67° |
| 2026-04-24 04:00 | 50.21682 | -116.92699 | 35125 ft | 483 kts | 67° |
| 2026-04-24 04:00 | 50.23885 | -116.82822 | 34861 ft | 485 kts | 67° |
| 2026-04-24 04:00 | 50.24987 | -116.77859 | 34661 ft | 484 kts | 68° |
| 2026-04-24 04:01 | 50.26088 | -116.72893 | 34452 ft | 484 kts | 68° |
| 2026-04-24 04:01 | 50.27173 | -116.67991 | 34243 ft | 484 kts | 68° |
| 2026-04-24 04:01 | 50.28269 | -116.63020 | 34031 ft | 484 kts | 68° |
| 2026-04-24 04:01 | 50.29357 | -116.58077 | 33615 ft | 482 kts | 68° |
| 2026-04-24 04:02 | 50.30454 | -116.53086 | 32893 ft | 486 kts | 68° |
| 2026-04-24 04:02 | 50.31538 | -116.48142 | 32167 ft | 489 kts | 68° |
| 2026-04-24 04:02 | 50.32637 | -116.43116 | 31494 ft | 490 kts | 68° |
| 2026-04-24 04:02 | 50.33726 | -116.38126 | 30890 ft | 490 kts | 68° |
| 2026-04-24 04:03 | 50.34820 | -116.33089 | 30387 ft | 485 kts | 68° |
| 2026-04-24 04:03 | 50.35887 | -116.28164 | 30099 ft | 477 kts | 68° |
| 2026-04-24 04:03 | 50.36941 | -116.23286 | 29756 ft | 470 kts | 68° |
| 2026-04-24 04:03 | 50.37983 | -116.18457 | 29350 ft | 466 kts | 68° |
| 2026-04-24 04:04 | 50.39001 | -116.13730 | 28905 ft | 464 kts | 68° |
| 2026-04-24 04:04 | 50.40053 | -116.08952 | 28411 ft | 463 kts | 68° |
| 2026-04-24 04:04 | 50.41113 | -116.04190 | 27889 ft | 463 kts | 68° |
| 2026-04-24 04:04 | 50.42154 | -115.99503 | 27360 ft | 462 kts | 68° |
| 2026-04-24 04:05 | 50.43203 | -115.94768 | 26830 ft | 461 kts | 68° |
| 2026-04-24 04:05 | 50.44251 | -115.90021 | 26283 ft | 461 kts | 68° |
| 2026-04-24 04:05 | 50.45295 | -115.85280 | 25701 ft | 460 kts | 68° |
| 2026-04-24 04:05 | 50.46337 | -115.80536 | 25094 ft | 459 kts | 68° |
| 2026-04-24 04:06 | 50.47362 | -115.75854 | 24479 ft | 457 kts | 68° |
| 2026-04-24 04:06 | 50.48395 | -115.71128 | 23876 ft | 454 kts | 68° |
| 2026-04-24 04:06 | 50.49414 | -115.66451 | 23291 ft | 451 kts | 69° |
| 2026-04-24 04:06 | 50.50413 | -115.61857 | 22722 ft | 446 kts | 69° |
| 2026-04-24 04:07 | 50.51417 | -115.57230 | 22146 ft | 443 kts | 69° |
| 2026-04-24 04:07 | 50.52404 | -115.52670 | 21487 ft | 441 kts | 68° |
| 2026-04-24 04:07 | 50.53375 | -115.48175 | 20793 ft | 439 kts | 68° |
| 2026-04-24 04:07 | 50.54346 | -115.43667 | 20095 ft | 434 kts | 68° |
| 2026-04-24 04:08 | 50.55300 | -115.39220 | 19528 ft | 424 kts | 68° |
| 2026-04-24 04:08 | 50.56222 | -115.34917 | 19001 ft | 414 kts | 69° |
| 2026-04-24 04:08 | 50.57132 | -115.30656 | 18478 ft | 403 kts | 68° |
| 2026-04-24 04:08 | 50.57998 | -115.26595 | 17986 ft | 393 kts | 68° |
| 2026-04-24 04:09 | 50.58862 | -115.22541 | 17505 ft | 386 kts | 68° |
| 2026-04-24 04:09 | 50.59709 | -115.18565 | 17033 ft | 380 kts | 68° |
| 2026-04-24 04:09 | 50.60529 | -115.14702 | 16603 ft | 374 kts | 68° |
| 2026-04-24 04:09 | 50.61346 | -115.10842 | 16179 ft | 369 kts | 67° |
| 2026-04-24 04:10 | 50.62153 | -115.07031 | 15759 ft | 368 kts | 67° |
| 2026-04-24 04:10 | 50.62962 | -115.03213 | 15284 ft | 376 kts | 67° |
| 2026-04-24 04:10 | 50.63786 | -114.99321 | 14759 ft | 375 kts | 67° |
| 2026-04-24 04:11 | 50.65411 | -114.91616 | 13913 ft | 363 kts | 66° |
| 2026-04-24 04:11 | 50.66187 | -114.87915 | 13842 ft | 347 kts | 66° |
| 2026-04-24 04:11 | 50.66919 | -114.84403 | 13739 ft | 334 kts | 65° |
| 2026-04-24 04:11 | 50.67629 | -114.80998 | 13618 ft | 321 kts | 65° |
| 2026-04-24 04:12 | 50.68304 | -114.77747 | 13517 ft | 310 kts | 64° |
| 2026-04-24 04:12 | 50.68963 | -114.74566 | 13405 ft | 300 kts | 64° |
| 2026-04-24 04:12 | 50.69600 | -114.71494 | 13297 ft | 290 kts | 64° |
| 2026-04-24 04:12 | 50.70204 | -114.68555 | 13175 ft | 280 kts | 64° |
| 2026-04-24 04:13 | 50.70954 | -114.65841 | 13030 ft | 259 kts | 45° |
| 2026-04-24 04:13 | 50.72091 | -114.63717 | 12846 ft | 257 kts | 39° |
| 2026-04-24 04:13 | 50.73314 | -114.61681 | 12572 ft | 256 kts | 38° |
| 2026-04-24 04:13 | 50.74552 | -114.59650 | 12318 ft | 252 kts | 37° |
| 2026-04-24 04:14 | 50.75747 | -114.57703 | 12090 ft | 250 kts | 37° |
| 2026-04-24 04:14 | 50.76963 | -114.55718 | 11757 ft | 254 kts | 37° |
| 2026-04-24 04:14 | 50.78207 | -114.53691 | 11136 ft | 264 kts | 37° |
| 2026-04-24 04:14 | 50.79503 | -114.51577 | 10522 ft | 272 kts | 37° |
| 2026-04-24 04:15 | 50.80834 | -114.49400 | 9930 ft | 279 kts | 37° |
| 2026-04-24 04:15 | 50.82205 | -114.47275 | 9666 ft | 271 kts | 35° |
| 2026-04-24 04:15 | 50.83533 | -114.45278 | 9645 ft | 257 kts | 35° |
| 2026-04-24 04:15 | 50.84783 | -114.43385 | 9611 ft | 246 kts | 35° |
| 2026-04-24 04:16 | 50.86012 | -114.41525 | 9527 ft | 242 kts | 35° |
| 2026-04-24 04:16 | 50.87206 | -114.39709 | 9425 ft | 240 kts | 35° |
| 2026-04-24 04:16 | 50.88412 | -114.37871 | 9314 ft | 240 kts | 36° |
| 2026-04-24 04:16 | 50.89619 | -114.36031 | 9203 ft | 240 kts | 36° |
| 2026-04-24 04:17 | 50.90818 | -114.34207 | 9090 ft | 239 kts | 37° |
| 2026-04-24 04:17 | 50.91825 | -114.32145 | 8957 ft | 241 kts | 56° |
| 2026-04-24 04:17 | 50.92486 | -114.29716 | 8704 ft | 240 kts | 60° |
| 2026-04-24 04:17 | 50.93084 | -114.27271 | 8409 ft | 238 kts | 61° |
| 2026-04-24 04:18 | 50.93682 | -114.24813 | 8130 ft | 235 kts | 61° |
| 2026-04-24 04:18 | 50.94262 | -114.22438 | 7889 ft | 230 kts | 61° |
| 2026-04-24 04:18 | 50.94833 | -114.20104 | 7619 ft | 225 kts | 62° |
| 2026-04-24 04:18 | 50.95389 | -114.17828 | 7367 ft | 220 kts | 62° |
| 2026-04-24 04:19 | 50.95932 | -114.15604 | 7126 ft | 214 kts | 62° |
| 2026-04-24 04:19 | 50.96456 | -114.13449 | 6890 ft | 208 kts | 62° |
| 2026-04-24 04:19 | 50.96966 | -114.11356 | 6665 ft | 202 kts | 63° |
| 2026-04-24 04:19 | 50.97463 | -114.09319 | 6447 ft | 195 kts | 63° |
| 2026-04-24 04:20 | 50.97939 | -114.07332 | 6237 ft | 189 kts | 61° |
| 2026-04-24 04:20 | 50.98481 | -114.05463 | 6034 ft | 188 kts | 49° |
| 2026-04-24 04:20 | 50.99312 | -114.03899 | 5814 ft | 180 kts | 31° |
| 2026-04-24 04:20 | 51.00297 | -114.02869 | 5614 ft | 157 kts | 15° |
| 2026-04-24 04:21 | 51.01255 | -114.02340 | 5421 ft | 139 kts | 5° |
| 2026-04-24 04:21 | 51.02160 | -114.02129 | 5164 ft | 121 kts | 355° |
| 2026-04-24 04:21 | 51.03004 | -114.02142 | 5010 ft | 119 kts | 353° |
| 2026-04-24 04:21 | 51.03817 | -114.02187 | 4802 ft | 117 kts | 353° |
| 2026-04-24 04:22 | 51.04625 | -114.02172 | 4577 ft | 117 kts | 356° |
| 2026-04-24 04:22 | 51.05448 | -114.02144 | 4304 ft | 118 kts | 355° |
| 2026-04-24 04:22 | 51.06285 | -114.02164 | 4150 ft | 123 kts | 356° |
| 2026-04-24 04:22 | 51.07159 | -114.02171 | 4012 ft | 128 kts | 357° |
| 2026-04-24 04:23 | 51.08060 | -114.02155 | 3919 ft | 129 kts | 359° |
| 2026-04-24 04:23 | 51.08960 | -114.02141 | 3773 ft | 129 kts | 358° |
| 2026-04-24 04:23 | 51.09849 | -114.02138 | 3576 ft | 127 kts | 358° |
| 2026-04-24 04:23 | 51.10655 | -114.02145 | 3551 ft | 101 kts | 2° |
| 2026-04-24 04:24 | 51.11240 | -114.02151 | 3560 ft | 66 kts | 356° |
| 2026-04-24 04:24 | 51.11579 | -114.02132 | 3564 ft | 37 kts | 358° |
| 2026-04-24 04:24 | 51.11818 | -114.02136 | 3564 ft | 31 kts | 1° |
| 2026-04-24 04:24 | 51.12027 | -114.02134 | 3563 ft | 29 kts | 0° |
| 2026-04-24 04:25 | 51.12223 | -114.02134 | 3563 ft | 27 kts | 360° |
| 2026-04-24 04:25 | 51.12413 | -114.02137 | 3563 ft | 26 kts | 359° |
| 2026-04-24 04:25 | 51.12570 | -114.02177 | 3564 ft | 18 kts | 303° |
| 2026-04-24 04:25 | 51.12602 | -114.02337 | 3563 ft | 14 kts | 273° |
| 2026-04-24 04:26 | 51.12601 | -114.02505 | 3561 ft | 16 kts | 269° |
| 2026-04-24 04:26 | 51.12604 | -114.02704 | 3553 ft | 20 kts | 275° |
| 2026-04-24 04:26 | 51.12645 | -114.02925 | 3552 ft | 22 kts | 296° |
| 2026-04-24 04:26 | 51.12725 | -114.03125 | 3554 ft | 19 kts | 327° |
| 2026-04-24 04:27 | 51.12841 | -114.03166 | 3556 ft | 11 kts | 0° |
| 2026-04-24 04:27 | 51.12905 | -114.03172 | 3557 ft | 7 kts | 355° |
| 2026-04-24 04:27 | 51.12939 | -114.03159 | 3558 ft | 0 kts | 25° |